createdAt,value
2022-12-13T00:01:44.860Z,41.00
2022-12-13T00:04:11.470Z,41.00
2022-12-13T00:06:37.978Z,41.00
2022-12-13T00:09:04.474Z,41.00
2022-12-13T00:11:30.928Z,40.90
2022-12-13T00:13:57.385Z,40.80
2022-12-13T00:16:23.910Z,40.90
2022-12-13T00:18:50.420Z,40.90
2022-12-13T00:21:16.875Z,40.90
2022-12-13T00:23:43.325Z,40.90
2022-12-13T00:26:09.782Z,40.90
2022-12-13T00:28:36.241Z,40.90
2022-12-13T00:31:26.893Z,40.90
2022-12-13T00:33:49.122Z,40.80
2022-12-13T00:36:15.585Z,40.80
2022-12-13T00:38:42.040Z,40.80
2022-12-13T00:41:08.490Z,40.80
2022-12-13T00:43:34.940Z,40.70
2022-12-13T00:46:01.445Z,40.70
2022-12-13T00:48:27.968Z,40.70
2022-12-13T00:50:54.446Z,40.60
2022-12-13T00:53:20.898Z,40.60
2022-12-13T00:55:47.400Z,40.60
2022-12-13T00:58:13.867Z,40.50
2022-12-13T01:00:40.369Z,40.70
2022-12-13T01:03:06.871Z,40.60
2022-12-13T01:06:13.229Z,40.60
2022-12-13T01:08:19.872Z,40.60
2022-12-13T01:10:46.411Z,40.60
2022-12-13T01:13:12.880Z,40.50
2022-12-13T01:15:39.363Z,40.50
2022-12-13T01:18:05.811Z,40.50
2022-12-13T01:20:32.301Z,40.30
2022-12-13T01:22:58.756Z,40.40
2022-12-13T01:25:25.222Z,40.50
2022-12-13T01:27:51.671Z,40.40
2022-12-13T01:30:18.157Z,40.40
2022-12-13T01:32:44.611Z,40.40
2022-12-13T01:35:11.107Z,40.40
2022-12-13T01:37:37.699Z,40.40
2022-12-13T01:40:15.809Z,40.40
2022-12-13T01:42:42.970Z,40.30
2022-12-13T01:45:09.441Z,40.20
2022-12-13T01:47:35.852Z,40.30
2022-12-13T01:50:02.329Z,40.30
2022-12-13T01:52:28.802Z,40.30
2022-12-13T01:54:55.253Z,40.20
2022-12-13T01:57:29.831Z,40.20
2022-12-13T01:59:56.295Z,40.20
2022-12-13T02:02:22.757Z,40.20
2022-12-13T02:04:49.245Z,40.10
2022-12-13T02:07:23.084Z,40.10
2022-12-13T02:09:50.123Z,40.10
2022-12-13T02:12:23.355Z,40.10
2022-12-13T02:14:56.098Z,40.10
2022-12-13T02:17:27.261Z,40.00
2022-12-13T02:19:53.728Z,40.00
2022-12-13T02:22:20.175Z,40.00
2022-12-13T02:24:46.625Z,40.00
2022-12-13T02:27:13.130Z,40.00
2022-12-13T02:29:39.622Z,40.00
2022-12-13T02:32:06.097Z,40.00
2022-12-13T02:34:33.910Z,39.90
2022-12-13T02:37:00.694Z,39.90
2022-12-13T02:39:30.529Z,39.80
2022-12-13T02:41:57.456Z,39.80
2022-12-13T02:44:23.917Z,39.80
2022-12-13T02:46:50.375Z,39.80
2022-12-13T02:49:16.828Z,39.60
2022-12-13T02:51:43.279Z,39.80
2022-12-13T02:54:09.738Z,39.70
2022-12-13T02:56:36.190Z,39.70
2022-12-13T02:59:02.645Z,39.50
2022-12-13T03:01:29.952Z,39.70
2022-12-13T03:03:56.508Z,39.70
2022-12-13T03:06:33.929Z,39.70
2022-12-13T03:09:01.066Z,39.60
2022-12-13T03:11:27.557Z,39.60
2022-12-13T03:13:54.017Z,39.60
2022-12-13T03:16:22.980Z,39.50
2022-12-13T03:18:50.258Z,39.50
2022-12-13T03:21:16.785Z,39.50
2022-12-13T03:23:43.258Z,39.50
2022-12-13T03:26:09.750Z,39.50
2022-12-13T03:28:36.215Z,39.40
2022-12-13T03:31:02.721Z,39.40
2022-12-13T03:33:29.222Z,39.40
2022-12-13T03:35:55.681Z,39.40
2022-12-13T03:38:23.445Z,39.30
2022-12-13T03:40:50.004Z,39.30
2022-12-13T03:43:21.955Z,39.40
2022-12-13T03:45:48.991Z,39.40
2022-12-13T03:48:15.452Z,39.30
2022-12-13T03:50:49.296Z,39.20
2022-12-13T03:53:21.975Z,39.20
2022-12-13T03:55:49.979Z,39.20
2022-12-13T03:58:16.442Z,39.20
2022-12-13T04:00:42.901Z,39.20
2022-12-13T04:03:09.399Z,39.20
2022-12-13T04:05:35.918Z,39.10
2022-12-13T04:08:02.418Z,39.10
2022-12-13T04:10:28.886Z,39.00
2022-12-13T04:12:55.343Z,39.10
2022-12-13T04:15:26.961Z,39.00
2022-12-13T04:17:53.417Z,39.00
2022-12-13T04:20:19.882Z,39.00
2022-12-13T04:22:46.354Z,39.00
2022-12-13T04:25:13.008Z,38.90
2022-12-13T04:27:39.780Z,38.70
2022-12-13T04:30:06.240Z,38.80
2022-12-13T04:32:32.714Z,38.80
2022-12-13T04:35:01.615Z,38.80
2022-12-13T04:37:28.276Z,38.80
2022-12-13T04:40:00.829Z,38.80
2022-12-13T04:42:27.734Z,38.80
2022-12-13T04:44:54.203Z,38.70
2022-12-13T04:47:20.664Z,38.70
2022-12-13T04:49:47.125Z,38.60
2022-12-13T04:52:13.602Z,38.70
2022-12-13T04:54:49.141Z,38.60
2022-12-13T04:57:22.455Z,38.60
2022-12-13T04:59:49.154Z,38.60
2022-12-13T05:02:23.614Z,38.40
2022-12-13T05:04:53.550Z,38.50
2022-12-13T05:07:20.892Z,38.40
2022-12-13T05:09:47.365Z,38.50
2022-12-13T05:12:22.513Z,38.40
2022-12-13T05:14:49.834Z,38.40
2022-12-13T05:17:16.314Z,38.40
2022-12-13T05:19:42.791Z,38.40
2022-12-13T05:22:09.241Z,38.40
2022-12-13T05:24:35.688Z,38.40
2022-12-13T05:27:02.136Z,38.40
2022-12-13T05:29:48.591Z,38.30
2022-12-13T05:32:15.075Z,38.30
2022-12-13T05:34:41.564Z,38.40
2022-12-13T05:37:08.012Z,38.40
2022-12-13T05:39:34.468Z,38.30
2022-12-13T05:42:02.073Z,38.30
2022-12-13T05:44:28.976Z,38.30
2022-12-13T05:46:55.439Z,38.10
2022-12-13T05:49:21.903Z,38.20
2022-12-13T05:51:48.378Z,38.20
2022-12-13T05:54:14.853Z,38.20
2022-12-13T05:56:41.310Z,38.20
2022-12-13T05:59:07.799Z,38.20
2022-12-13T06:01:34.255Z,38.20
2022-12-13T06:04:00.733Z,38.20
2022-12-13T06:06:27.206Z,38.10
2022-12-13T06:08:53.737Z,38.20
2022-12-13T06:11:21.605Z,38.10
2022-12-13T06:14:00.753Z,38.00
2022-12-13T06:16:27.895Z,38.10
2022-12-13T06:19:01.245Z,38.00
2022-12-13T06:21:40.676Z,38.00
2022-12-13T06:24:10.189Z,37.90
2022-12-13T06:26:36.650Z,38.00
2022-12-13T06:29:03.096Z,38.00
2022-12-13T06:31:29.564Z,38.00
2022-12-13T06:33:56.032Z,37.90
2022-12-13T06:36:22.494Z,37.90
2022-12-13T06:38:48.954Z,37.90
2022-12-13T06:41:15.422Z,37.90
2022-12-13T06:43:41.907Z,37.90
2022-12-13T06:46:08.426Z,37.80
2022-12-13T06:48:35.718Z,37.80
2022-12-13T06:51:02.184Z,37.80
2022-12-13T06:53:28.652Z,37.80
2022-12-13T06:55:55.108Z,37.80
2022-12-13T06:58:21.569Z,37.90
2022-12-13T07:00:48.967Z,37.80
2022-12-13T07:03:15.805Z,37.80
2022-12-13T07:05:43.341Z,37.80
2022-12-13T07:08:10.059Z,37.80
2022-12-13T07:10:36.610Z,37.70
2022-12-13T07:13:03.058Z,37.60
2022-12-13T07:15:29.573Z,37.60
2022-12-13T07:17:56.045Z,37.70
2022-12-13T07:20:22.526Z,37.70
2022-12-13T07:22:52.421Z,37.60
2022-12-13T07:25:27.457Z,37.60
2022-12-13T07:27:55.659Z,37.60
2022-12-13T07:30:28.421Z,37.60
2022-12-13T07:32:54.935Z,37.60
2022-12-13T07:35:21.368Z,37.60
2022-12-13T07:37:47.826Z,37.60
2022-12-13T07:40:14.311Z,37.60
2022-12-13T07:42:40.774Z,37.60
2022-12-13T07:45:07.262Z,37.60
2022-12-13T07:47:37.102Z,37.50
2022-12-13T07:50:03.587Z,37.50
2022-12-13T07:52:30.054Z,37.50
2022-12-13T07:54:56.508Z,37.50
2022-12-13T07:57:22.978Z,37.40
2022-12-13T07:59:49.441Z,37.40
2022-12-13T08:02:15.981Z,37.40
2022-12-13T08:04:42.610Z,37.40
2022-12-13T08:07:09.289Z,37.40
2022-12-13T08:09:35.818Z,37.40
2022-12-13T08:12:02.295Z,37.30
2022-12-13T08:14:29.862Z,37.30
2022-12-13T08:16:56.363Z,37.30
2022-12-13T08:19:22.907Z,37.30
2022-12-13T08:21:55.058Z,37.10
2022-12-13T08:24:21.938Z,37.30
2022-12-13T08:26:48.396Z,37.30
2022-12-13T08:29:22.914Z,37.30
2022-12-13T08:32:01.307Z,37.30
2022-12-13T08:34:28.041Z,37.30
2022-12-13T08:37:02.031Z,37.30
2022-12-13T08:39:29.515Z,37.30
2022-12-13T08:41:55.979Z,37.30
2022-12-13T08:44:22.438Z,37.30
2022-12-13T08:46:48.968Z,37.30
2022-12-13T08:49:15.504Z,37.30
2022-12-13T08:51:42.048Z,37.30
2022-12-13T08:54:10.452Z,37.40
2022-12-13T08:56:37.870Z,37.30
2022-12-13T08:59:04.341Z,37.40
2022-12-13T09:01:30.832Z,37.30
2022-12-13T09:03:57.273Z,37.40
2022-12-13T09:06:23.727Z,37.30
2022-12-13T09:08:51.700Z,37.20
2022-12-13T09:11:34.784Z,37.40
2022-12-13T09:14:03.126Z,37.50
2022-12-13T09:16:29.668Z,37.30
2022-12-13T09:19:06.656Z,37.40
2022-12-13T09:21:49.124Z,37.50
2022-12-13T09:24:23.931Z,37.50
2022-12-13T09:26:51.289Z,37.50
2022-12-13T09:29:23.885Z,37.50
2022-12-13T09:31:53.198Z,37.40
2022-12-13T09:34:20.028Z,37.50
2022-12-13T09:36:46.596Z,37.40
2022-12-13T09:39:13.089Z,37.50
2022-12-13T09:41:40.947Z,37.50
2022-12-13T09:44:32.925Z,37.50
2022-12-13T09:46:54.232Z,37.60
2022-12-13T09:49:27.748Z,37.70
2022-12-13T09:52:11.713Z,37.70
2022-12-13T09:54:47.133Z,37.70
2022-12-13T09:57:14.536Z,37.80
2022-12-13T10:00:01.279Z,37.80
2022-12-13T10:02:28.384Z,37.80
2022-12-13T10:04:54.907Z,37.80
2022-12-13T10:07:27.609Z,37.80
2022-12-13T10:09:54.070Z,37.90
2022-12-13T10:12:20.526Z,37.90
2022-12-13T10:14:46.988Z,37.90
2022-12-13T10:17:13.494Z,37.90
2022-12-13T10:19:39.960Z,37.80
2022-12-13T10:22:06.416Z,37.90
2022-12-13T10:24:37.238Z,38.00
2022-12-13T10:27:03.982Z,37.90
2022-12-13T10:29:30.499Z,38.00
2022-12-13T10:31:57.106Z,38.10
2022-12-13T10:34:23.573Z,38.00
2022-12-13T10:36:50.041Z,38.10
2022-12-13T10:39:16.505Z,38.10
2022-12-13T10:41:42.974Z,38.10
2022-12-13T10:44:09.425Z,38.10
2022-12-13T10:46:38.578Z,38.20
2022-12-13T10:49:05.469Z,38.20
2022-12-13T10:51:32.187Z,38.10
2022-12-13T10:53:58.757Z,38.20
2022-12-13T10:56:25.224Z,38.20
2022-12-13T10:58:51.684Z,38.10
2022-12-13T11:01:18.310Z,38.10
2022-12-13T11:03:44.772Z,38.20
2022-12-13T11:06:11.234Z,38.20
2022-12-13T11:08:37.674Z,38.30
2022-12-13T11:11:04.124Z,38.20
2022-12-13T11:13:30.577Z,38.30
2022-12-13T11:15:57.055Z,38.30
2022-12-13T11:18:23.749Z,38.30
2022-12-13T11:20:54.177Z,38.40
2022-12-13T11:23:20.809Z,38.40
2022-12-13T11:25:47.284Z,38.40
2022-12-13T11:28:37.336Z,38.40
2022-12-13T11:31:01.428Z,38.40
2022-12-13T11:33:28.120Z,38.50
2022-12-13T11:35:54.596Z,38.40
2022-12-13T11:38:21.064Z,38.50
2022-12-13T11:40:47.521Z,38.50
2022-12-13T11:43:13.994Z,38.60
2022-12-13T11:45:40.501Z,38.50
2022-12-13T11:48:07.000Z,38.60
2022-12-13T11:50:34.465Z,38.50
2022-12-13T11:53:01.104Z,38.50
2022-12-13T11:55:27.605Z,38.60
2022-12-13T11:57:54.060Z,38.50
2022-12-13T12:00:36.631Z,38.70
2022-12-13T12:03:03.203Z,38.60
2022-12-13T12:05:29.679Z,38.70
2022-12-13T12:08:31.006Z,38.70
2022-12-13T12:10:47.663Z,38.70
2022-12-13T12:13:16.057Z,38.70
2022-12-13T12:15:42.584Z,38.70
2022-12-13T12:18:09.090Z,38.80
2022-12-13T12:20:35.585Z,38.80
2022-12-13T12:23:02.088Z,38.80
2022-12-13T12:25:28.551Z,38.80
2022-12-13T12:27:55.025Z,38.80
2022-12-13T12:30:23.554Z,38.80
2022-12-13T12:32:50.594Z,38.70
2022-12-13T12:35:17.050Z,38.80
2022-12-13T12:37:43.515Z,38.80
2022-12-13T12:40:10.047Z,38.80
2022-12-13T12:42:56.457Z,38.70
2022-12-13T12:45:55.063Z,38.90
2022-12-13T12:48:47.936Z,38.90
2022-12-13T12:50:55.969Z,38.90
2022-12-13T12:53:22.442Z,38.90
2022-12-13T12:55:48.902Z,38.90
2022-12-13T12:58:15.376Z,38.90
2022-12-13T13:00:41.825Z,38.70
2022-12-13T13:03:26.805Z,38.90
2022-12-13T13:05:58.549Z,39.00
2022-12-13T13:08:28.594Z,38.90
2022-12-13T13:10:55.293Z,38.90
2022-12-13T13:13:33.074Z,38.90
2022-12-13T13:16:00.221Z,38.90
2022-12-13T13:18:27.332Z,38.90
2022-12-13T13:20:54.263Z,39.00
2022-12-13T13:23:39.565Z,39.00
2022-12-13T13:26:26.786Z,39.00
2022-12-13T13:28:53.389Z,39.00
2022-12-13T13:31:19.869Z,39.00
2022-12-13T13:33:46.373Z,39.00
2022-12-13T13:36:12.825Z,39.00
2022-12-13T13:38:55.631Z,39.10
2022-12-13T13:41:28.251Z,39.10
2022-12-13T13:43:54.744Z,39.00
2022-12-13T13:46:21.209Z,39.00
2022-12-13T13:48:47.709Z,39.00
2022-12-13T13:51:14.173Z,39.10
2022-12-13T13:53:40.643Z,39.00
2022-12-13T13:56:07.127Z,39.10
2022-12-13T13:58:33.610Z,39.00
2022-12-13T14:01:00.095Z,39.00
2022-12-13T14:03:33.145Z,39.10
2022-12-13T14:06:00.502Z,39.10
2022-12-13T14:08:27.009Z,39.10
2022-12-13T14:10:53.553Z,39.10
2022-12-13T14:13:20.196Z,39.10
2022-12-13T14:15:49.734Z,39.00
2022-12-13T14:18:21.592Z,39.00
2022-12-13T14:20:48.418Z,39.00
2022-12-13T14:23:14.893Z,39.10
2022-12-13T14:25:52.319Z,39.00
2022-12-13T14:28:19.125Z,39.00
2022-12-13T14:30:47.937Z,39.00
2022-12-13T14:33:24.527Z,39.00
2022-12-13T14:35:51.229Z,39.10
2022-12-13T14:38:17.694Z,39.00
2022-12-13T14:40:44.197Z,39.10
2022-12-13T14:43:10.673Z,39.00
2022-12-13T14:45:50.806Z,39.10
2022-12-13T14:48:28.438Z,39.10
2022-12-13T14:50:56.184Z,39.00
2022-12-13T14:53:23.093Z,39.00
2022-12-13T14:55:49.804Z,39.00
2022-12-13T14:58:16.276Z,39.00
2022-12-13T15:00:42.789Z,39.00
2022-12-13T15:03:09.282Z,39.00
2022-12-13T15:05:35.768Z,39.00
2022-12-13T15:08:10.921Z,39.00
2022-12-13T15:10:37.985Z,39.00
2022-12-13T15:13:04.495Z,39.00
2022-12-13T15:15:31.013Z,39.00
2022-12-13T15:17:57.503Z,39.00
2022-12-13T15:20:24.113Z,39.00
2022-12-13T15:22:50.648Z,39.00
2022-12-13T15:25:17.144Z,38.90
2022-12-13T15:27:48.608Z,39.00
2022-12-13T15:30:15.258Z,38.90
2022-12-13T15:32:41.733Z,38.90
2022-12-13T15:35:08.228Z,38.90
2022-12-13T15:37:34.688Z,38.90
2022-12-13T15:40:01.237Z,38.90
2022-12-13T15:42:27.742Z,38.90
2022-12-13T15:44:54.217Z,38.90
2022-12-13T15:47:28.049Z,38.90
2022-12-13T15:49:55.620Z,38.90
2022-12-13T15:52:22.173Z,38.70
2022-12-13T15:54:48.651Z,38.90
2022-12-13T15:57:15.131Z,38.80
2022-12-13T15:59:41.638Z,38.90
2022-12-13T16:02:08.442Z,38.80
2022-12-13T16:04:34.936Z,38.90
2022-12-13T16:07:01.429Z,38.90
2022-12-13T16:09:27.929Z,38.90
2022-12-13T16:11:54.409Z,38.90
2022-12-13T16:14:26.211Z,38.90
2022-12-13T16:16:53.088Z,38.80
2022-12-13T16:19:19.636Z,38.90
2022-12-13T16:21:46.135Z,38.90
2022-12-13T16:24:12.608Z,38.90
2022-12-13T16:26:39.087Z,38.90
2022-12-13T16:29:05.546Z,38.90
2022-12-13T16:31:32.089Z,38.90
2022-12-13T16:33:58.595Z,38.80
2022-12-13T16:36:25.090Z,38.80
2022-12-13T16:38:51.573Z,38.80
2022-12-13T16:41:18.061Z,38.90
2022-12-13T16:43:44.541Z,38.90
2022-12-13T16:47:14.234Z,38.80
2022-12-13T16:48:57.507Z,38.90
2022-12-13T16:51:24.007Z,38.90
2022-12-13T16:53:50.490Z,38.90
2022-12-13T16:56:16.982Z,38.90
2022-12-13T16:58:49.466Z,38.80
2022-12-13T17:01:16.577Z,38.80
2022-12-13T17:03:43.141Z,38.80
2022-12-13T17:06:09.620Z,38.90
2022-12-13T17:08:36.096Z,38.80
2022-12-13T17:11:02.575Z,38.80
2022-12-13T17:13:29.578Z,38.80
2022-12-13T17:15:59.367Z,38.90
2022-12-13T17:18:26.516Z,38.90
2022-12-13T17:20:58.102Z,38.90
2022-12-13T17:23:25.256Z,38.90
2022-12-13T17:25:58.337Z,39.00
2022-12-13T17:28:25.357Z,38.90
2022-12-13T17:30:54.690Z,38.80
2022-12-13T17:33:21.776Z,38.90
2022-12-13T17:35:48.301Z,38.90
2022-12-13T17:38:14.786Z,38.90
2022-12-13T17:40:41.250Z,38.80
2022-12-13T17:43:07.714Z,38.80
2022-12-13T17:45:34.166Z,38.80
2022-12-13T17:48:00.624Z,38.70
2022-12-13T17:50:27.078Z,38.90
2022-12-13T17:52:53.554Z,38.90
2022-12-13T17:55:20.019Z,38.90
2022-12-13T17:57:46.484Z,38.80
2022-12-13T18:00:12.945Z,38.70
2022-12-13T18:02:39.495Z,38.80
2022-12-13T18:05:06.007Z,38.80
2022-12-13T18:07:32.482Z,38.80
2022-12-13T18:09:58.937Z,38.70
2022-12-13T18:12:25.407Z,38.80
2022-12-13T18:14:51.875Z,38.70
2022-12-13T18:17:18.367Z,38.70
2022-12-13T18:19:44.905Z,38.70
2022-12-13T18:22:11.395Z,38.70
2022-12-13T18:24:37.858Z,38.70
2022-12-13T18:27:04.326Z,38.70
2022-12-13T18:29:30.773Z,38.70
2022-12-13T18:31:57.262Z,38.70
2022-12-13T18:34:23.723Z,38.60
2022-12-13T18:36:50.212Z,38.70
2022-12-13T18:39:16.658Z,38.60
2022-12-13T18:41:43.132Z,38.60
2022-12-13T18:44:09.581Z,38.70
2022-12-13T18:46:36.107Z,38.70
2022-12-13T18:49:02.716Z,38.60
2022-12-13T18:51:29.201Z,38.60
2022-12-13T18:53:55.693Z,38.60
2022-12-13T18:56:22.150Z,38.60
2022-12-13T18:58:48.621Z,38.60
2022-12-13T19:01:15.163Z,38.60
2022-12-13T19:03:41.664Z,38.60
2022-12-13T19:06:08.118Z,38.60
2022-12-13T19:08:34.578Z,38.60
2022-12-13T19:11:01.024Z,38.60
2022-12-13T19:13:27.788Z,38.50
2022-12-13T19:15:54.631Z,38.60
2022-12-13T19:18:21.115Z,38.50
2022-12-13T19:20:47.573Z,38.60
2022-12-13T19:23:14.047Z,38.60
2022-12-13T19:25:40.511Z,38.60
2022-12-13T19:28:06.979Z,38.60
2022-12-13T19:30:33.446Z,38.60
2022-12-13T19:32:59.920Z,38.60
2022-12-13T19:35:26.412Z,38.60
2022-12-13T19:37:52.895Z,38.60
2022-12-13T19:40:19.339Z,38.60
2022-12-13T19:42:45.788Z,38.70
2022-12-13T19:45:12.253Z,38.60
2022-12-13T19:47:38.705Z,38.60
2022-12-13T19:50:05.184Z,38.60
2022-12-13T19:52:31.644Z,38.60
2022-12-13T19:54:58.101Z,38.60
2022-12-13T19:57:24.563Z,38.60
2022-12-13T19:59:51.033Z,38.60
2022-12-13T20:02:17.483Z,38.60
2022-12-13T20:04:43.948Z,38.50
2022-12-13T20:07:10.406Z,38.60
2022-12-13T20:09:36.864Z,38.60
2022-12-13T20:12:03.334Z,38.60
2022-12-13T20:14:29.793Z,38.60
2022-12-13T20:16:56.248Z,38.50
2022-12-13T20:19:22.721Z,38.50
2022-12-13T20:21:53.539Z,38.50
2022-12-13T20:24:23.095Z,38.50
2022-12-13T20:26:49.573Z,38.50
2022-12-13T20:29:16.044Z,38.50
2022-12-13T20:31:42.564Z,38.40
2022-12-13T20:34:14.914Z,38.50
2022-12-13T20:36:41.376Z,38.30
2022-12-13T20:39:07.847Z,38.40
2022-12-13T20:41:34.355Z,38.40
2022-12-13T20:44:00.912Z,38.40
2022-12-13T20:46:27.506Z,38.50
2022-12-13T20:48:54.063Z,38.50
2022-12-13T20:51:20.533Z,38.50
2022-12-13T20:53:46.994Z,38.50
2022-12-13T20:56:13.472Z,38.40
2022-12-13T20:58:40.406Z,38.40
2022-12-13T21:01:07.057Z,38.40
2022-12-13T21:03:33.575Z,38.50
2022-12-13T21:06:00.056Z,38.50
2022-12-13T21:08:26.547Z,38.40
2022-12-13T21:10:53.002Z,38.50
2022-12-13T21:13:19.477Z,38.50
2022-12-13T21:15:45.939Z,38.40
2022-12-13T21:18:12.397Z,38.40
2022-12-13T21:20:38.892Z,38.50
2022-12-13T21:23:05.370Z,38.30
2022-12-13T21:25:31.839Z,38.40
2022-12-13T21:27:58.310Z,38.40
2022-12-13T21:30:24.762Z,38.40
2022-12-13T21:32:52.861Z,38.40
2022-12-13T21:35:19.562Z,38.40
2022-12-13T21:37:46.026Z,38.30
2022-12-13T21:40:14.946Z,38.40
2022-12-13T21:42:41.416Z,38.40
2022-12-13T21:45:07.887Z,38.40
2022-12-13T21:47:34.338Z,38.30
2022-12-13T21:50:00.787Z,38.30
2022-12-13T21:52:27.254Z,38.30
2022-12-13T21:55:15.349Z,38.30
2022-12-13T21:57:40.159Z,38.30
2022-12-13T22:00:06.644Z,38.30
2022-12-13T22:02:33.184Z,38.30
2022-12-13T22:04:59.751Z,38.30
2022-12-13T22:07:26.217Z,38.30
2022-12-13T22:09:52.673Z,38.40
2022-12-13T22:12:19.150Z,38.40
2022-12-13T22:14:45.610Z,38.30
2022-12-13T22:17:12.065Z,38.20
2022-12-13T22:19:38.517Z,38.30
2022-12-13T22:22:04.988Z,38.30
2022-12-13T22:24:31.448Z,38.30
2022-12-13T22:26:57.915Z,38.20
2022-12-13T22:29:24.355Z,38.20
2022-12-13T22:31:50.853Z,38.20
2022-12-13T22:34:17.334Z,38.20
2022-12-13T22:36:43.793Z,38.20
2022-12-13T22:39:10.243Z,38.20
2022-12-13T22:41:36.701Z,38.20
2022-12-13T22:44:03.180Z,38.20
2022-12-13T22:46:29.663Z,38.10
2022-12-13T22:48:56.136Z,38.10
2022-12-13T22:51:22.604Z,38.10
2022-12-13T22:53:49.077Z,38.00
2022-12-13T22:56:15.550Z,38.00
2022-12-13T22:58:42.001Z,38.00
2022-12-13T23:01:08.540Z,38.00
2022-12-13T23:03:35.117Z,38.00
2022-12-13T23:06:01.582Z,37.90
2022-12-13T23:08:28.501Z,38.10
2022-12-13T23:10:55.238Z,38.00
2022-12-13T23:13:21.715Z,37.90
2022-12-13T23:15:49.633Z,37.80
2022-12-13T23:18:16.184Z,37.90
2022-12-13T23:20:42.681Z,38.00
2022-12-13T23:23:13.025Z,38.00
2022-12-13T23:25:39.488Z,38.00
2022-12-13T23:28:05.973Z,38.00
2022-12-13T23:30:32.457Z,37.90
2022-12-13T23:32:58.973Z,37.90
2022-12-13T23:35:25.415Z,37.90
2022-12-13T23:37:51.890Z,37.80
2022-12-13T23:40:18.354Z,37.80
2022-12-13T23:42:44.824Z,37.80
2022-12-13T23:45:11.273Z,37.80
2022-12-13T23:47:37.725Z,37.80
2022-12-13T23:50:04.199Z,37.80
2022-12-13T23:52:30.674Z,37.80
2022-12-13T23:54:57.130Z,37.80
2022-12-13T23:57:23.587Z,37.70
2022-12-13T23:59:50.036Z,37.70
